This is the latest recevied weather packets stored in our database for station/object VA3XLC. If no packets are shown the sender has not sent any weather packets the latest 10 day(s).
| Time | Temp. | Humidity | Pressure | Rain* | Wind** | Luminosity | Snow |
|---|---|---|---|---|---|---|---|
| 1777988232 | 10.56° C | 75% | 971.5 hPa | - | - | 316 W/m² | - |
| 1777986728 | 10° C | 77% | 971.2 hPa | - | - | 449 W/m² | - |
| 1777985806 | 10° C | 78% | 971.4 hPa | - | - | 192 W/m² | - |
| 1777983683 | 11.67° C | 77% | 970.6 hPa | - | - | 81 W/m² | - |
| 1777981559 | 14.44° C | 76% | 969.4 hPa | - | - | 76 W/m² | - |
| 1777980638 | 14.44° C | 75% | 969.2 hPa | - | - | 53 W/m² | - |
| 1777980337 | 15° C | 75% | 969.2 hPa | - | - | 47 W/m² | - |
| 1777979715 | 15° C | 74% | 969.1 hPa | - | - | 40 W/m² | - |
| 1777978172 | 15° C | 74% | 968.9 hPa | - | - | 20 W/m² | - |
| 1777977571 | 15° C | 73% | 968.7 hPa | - | - | 13 W/m² | - |
| 1777976971 | 15° C | 73% | 968.6 hPa | - | - | 6 W/m² | - |
| 1777974826 | 15° C | 73% | 968.5 hPa | - | - | 0 W/m² | - |
| 1777974226 | 15° C | 73% | 968.4 hPa | - | - | 0 W/m² | - |
| 1777973626 | 15° C | 73% | 968.2 hPa | - | - | 0 W/m² | - |
| 1777973325 | 15.56° C | 73% | 968.2 hPa | - | - | 0 W/m² | - |
| 1777973024 | 15.56° C | 73% | 968 hPa | - | - | 0 W/m² | - |
| 1777972723 | 15.56° C | 72% | 968 hPa | - | - | 0 W/m² | - |
| 1777970600 | 15.56° C | 72% | 967.6 hPa | - | - | 0 W/m² | - |
| 1777970300 | 15.56° C | 72% | 967.6 hPa | - | - | 0 W/m² | - |
| 1777962324 | 15° C | 71% | 968.1 hPa | - | - | 0 W/m² | - |
| 1777958056 | 15.56° C | 70% | 968.6 hPa | - | - | 0 W/m² | - |
| 1777955933 | 16.11° C | 71% | 968.5 hPa | - | - | 0 W/m² | - |
| 1777952266 | 16.11° C | 69% | 968.6 hPa | - | - | 0 W/m² | - |
| 1777949842 | 16.67° C | 68% | 969.2 hPa | - | - | 0 W/m² | - |
| 1777948919 | 15.56° C | 73% | 969.1 hPa | - | - | 0 W/m² | - |
* Rain since midnight (hover to see other rain measurements)
** Current wind speed in m/s (hover to see current wind gust speed)